createdAt,value
2023-01-20T00:02:22.859Z,85.26
2023-01-20T00:04:52.162Z,85.57
2023-01-20T00:07:20.670Z,85.74
2023-01-20T00:09:49.243Z,86.15
2023-01-20T00:12:17.881Z,85.97
2023-01-20T00:14:46.843Z,85.71
2023-01-20T00:17:15.393Z,85.66
2023-01-20T00:19:44.519Z,85.37
2023-01-20T00:22:13.060Z,85.11
2023-01-20T00:24:41.595Z,85.22
2023-01-20T00:27:10.270Z,85.75
2023-01-20T00:29:38.810Z,85.49
2023-01-20T00:32:07.346Z,85.15
2023-01-20T00:34:35.840Z,85.45
2023-01-20T00:37:04.459Z,85.69
2023-01-20T00:39:33.002Z,85.29
2023-01-20T00:42:01.534Z,85.19
2023-01-20T00:44:29.998Z,85.05
2023-01-20T00:46:58.659Z,84.77
2023-01-20T00:49:29.264Z,84.26
2023-01-20T00:51:57.782Z,84.44
2023-01-20T00:54:26.278Z,84.46
2023-01-20T00:56:54.838Z,84.64
2023-01-20T00:59:23.464Z,84.49
2023-01-20T01:01:52.261Z,84.28
2023-01-20T01:04:20.908Z,84.66
2023-01-20T01:06:52.596Z,84.78
2023-01-20T01:09:22.130Z,84.95
2023-01-20T01:11:51.171Z,85.05
2023-01-20T01:14:19.735Z,85.10
2023-01-20T01:16:48.284Z,85.03
2023-01-20T01:19:19.307Z,86.33
2023-01-20T01:21:47.797Z,86.32
2023-01-20T01:24:16.392Z,86.14
2023-01-20T01:26:44.956Z,86.11
2023-01-20T01:29:13.896Z,86.09
2023-01-20T01:31:42.471Z,86.11
2023-01-20T01:34:11.182Z,86.92
2023-01-20T01:36:39.696Z,87.27
2023-01-20T01:39:08.379Z,87.39
2023-01-20T01:41:37.957Z,87.21
2023-01-20T01:44:09.969Z,87.79
2023-01-20T01:46:39.783Z,87.80
2023-01-20T01:49:12.914Z,88.13
2023-01-20T01:52:03.098Z,88.20
2023-01-20T01:54:38.452Z,88.42
2023-01-20T01:57:08.627Z,88.29
2023-01-20T01:59:38.284Z,88.48
2023-01-20T02:02:06.817Z,88.48
2023-01-20T02:04:35.557Z,88.75
2023-01-20T02:07:09.484Z,88.61
2023-01-20T02:09:38.543Z,89.46
2023-01-20T02:12:11.124Z,89.85
2023-01-20T02:14:45.332Z,90.02
2023-01-20T02:17:29.224Z,90.15
2023-01-20T02:20:27.654Z,90.91
2023-01-20T02:23:37.069Z,91.71
2023-01-20T02:26:26.523Z,91.99
2023-01-20T02:29:36.655Z,91.83
2023-01-20T02:32:30.397Z,92.32
2023-01-20T02:35:13.716Z,92.50
2023-01-20T02:37:53.476Z,92.14
2023-01-20T02:40:32.282Z,92.48
2023-01-20T02:43:33.126Z,92.29
2023-01-20T02:46:20.410Z,92.12
2023-01-20T02:49:20.935Z,93.16
2023-01-20T02:51:52.378Z,93.69
2023-01-20T02:54:25.032Z,93.37
2023-01-20T02:56:55.572Z,93.12
2023-01-20T02:59:31.231Z,93.84
2023-01-20T03:02:14.172Z,93.61
2023-01-20T03:05:08.109Z,93.31
2023-01-20T03:07:40.537Z,93.53
2023-01-20T03:10:16.764Z,93.37
2023-01-20T03:13:03.425Z,93.54
2023-01-20T03:15:54.861Z,93.56
2023-01-20T03:18:24.747Z,94.05
2023-01-20T03:20:53.344Z,93.92
2023-01-20T03:23:21.990Z,93.94
2023-01-20T03:25:51.312Z,94.04
2023-01-20T03:28:19.788Z,93.75
2023-01-20T03:30:49.102Z,93.86
2023-01-20T03:33:18.154Z,94.35
2023-01-20T03:35:47.042Z,94.52
2023-01-20T03:38:15.598Z,94.56
2023-01-20T03:41:22.491Z,94.24
2023-01-20T03:43:57.144Z,94.23
2023-01-20T03:46:45.284Z,94.51
2023-01-20T03:49:27.521Z,94.59
2023-01-20T03:52:09.187Z,95.28
2023-01-20T03:54:48.130Z,94.95
2023-01-20T03:57:25.895Z,95.52
2023-01-20T03:59:55.064Z,95.97
2023-01-20T04:02:26.599Z,96.80
2023-01-20T04:04:56.891Z,96.25
2023-01-20T04:07:27.142Z,96.52
2023-01-20T04:10:01.731Z,96.66
2023-01-20T04:12:30.791Z,96.50
2023-01-20T04:15:00.721Z,96.03
2023-01-20T04:17:29.971Z,95.69
2023-01-20T04:20:05.291Z,95.65
2023-01-20T04:22:49.250Z,96.71
2023-01-20T04:25:36.858Z,96.40
2023-01-20T04:28:05.370Z,95.94
2023-01-20T04:30:33.992Z,95.52
2023-01-20T04:33:02.556Z,95.73
2023-01-20T04:35:31.077Z,95.46
2023-01-20T04:37:59.602Z,95.77
2023-01-20T04:40:30.884Z,95.81
2023-01-20T04:42:59.338Z,95.32
2023-01-20T04:45:27.879Z,95.05
2023-01-20T04:47:56.356Z,95.34
2023-01-20T04:50:24.985Z,95.57
2023-01-20T04:52:56.779Z,95.36
2023-01-20T04:55:26.826Z,94.81
2023-01-20T04:57:55.474Z,94.64
2023-01-20T05:00:26.429Z,95.58
2023-01-20T05:02:58.602Z,95.23
2023-01-20T05:05:27.757Z,95.13
2023-01-20T05:07:57.271Z,95.76
2023-01-20T05:10:25.892Z,95.87
2023-01-20T05:12:54.301Z,95.94
2023-01-20T05:15:25.740Z,96.02
2023-01-20T05:17:54.209Z,96.46
2023-01-20T05:20:22.755Z,96.56
2023-01-20T05:22:51.301Z,96.50
2023-01-20T05:25:19.912Z,95.97
2023-01-20T05:27:48.406Z,95.53
2023-01-20T05:30:17.055Z,95.82
2023-01-20T05:32:46.584Z,96.48
2023-01-20T05:35:15.370Z,96.61
2023-01-20T05:37:44.480Z,97.33
2023-01-20T05:40:13.568Z,97.84
2023-01-20T05:42:45.647Z,97.19
2023-01-20T05:45:14.545Z,96.66
2023-01-20T05:47:43.403Z,96.80
2023-01-20T05:50:12.940Z,97.04
2023-01-20T05:52:41.550Z,96.64
2023-01-20T05:55:10.176Z,96.65
2023-01-20T05:57:38.632Z,97.12
2023-01-20T06:00:08.866Z,97.19
2023-01-20T06:02:37.505Z,96.76
2023-01-20T06:05:07.411Z,96.73
2023-01-20T06:07:35.974Z,96.74
2023-01-20T06:10:04.669Z,96.48
2023-01-20T06:12:33.146Z,96.59
2023-01-20T06:15:01.750Z,97.09
2023-01-20T06:17:30.344Z,97.21
2023-01-20T06:20:02.045Z,97.07
2023-01-20T06:22:30.869Z,97.55
2023-01-20T06:24:59.973Z,97.28
2023-01-20T06:27:28.570Z,97.13
2023-01-20T06:29:58.500Z,96.91
2023-01-20T06:32:26.963Z,96.98
2023-01-20T06:34:55.484Z,96.81
2023-01-20T06:37:24.658Z,96.74
2023-01-20T06:39:53.860Z,96.75
2023-01-20T06:42:22.385Z,96.34
2023-01-20T06:44:51.000Z,96.06
2023-01-20T06:47:21.075Z,96.10
2023-01-20T06:49:49.609Z,95.93
2023-01-20T06:52:18.321Z,96.00
2023-01-20T06:54:47.579Z,95.71
2023-01-20T06:57:17.964Z,95.51
2023-01-20T06:59:47.543Z,95.19
2023-01-20T07:02:16.133Z,95.61
2023-01-20T07:04:44.722Z,96.05
2023-01-20T07:07:13.357Z,95.71
2023-01-20T07:09:41.883Z,96.67
2023-01-20T07:12:15.018Z,96.81
2023-01-20T07:18:05.789Z,97.24
2023-01-20T07:20:34.490Z,96.98
2023-01-20T07:23:06.392Z,96.46
2023-01-20T07:25:38.195Z,96.27
2023-01-20T07:28:09.335Z,96.01
2023-01-20T07:30:40.888Z,96.18
2023-01-20T07:33:09.671Z,96.30
2023-01-20T07:35:39.244Z,96.17
2023-01-20T07:38:13.057Z,96.59
2023-01-20T07:40:41.868Z,96.59
2023-01-20T07:43:13.048Z,96.25
2023-01-20T07:45:41.943Z,96.46
2023-01-20T07:48:10.662Z,96.19
2023-01-20T07:50:39.239Z,96.54
2023-01-20T07:53:07.913Z,96.34
2023-01-20T07:55:36.603Z,95.97
2023-01-20T07:58:08.433Z,96.36
2023-01-20T08:00:41.412Z,96.02
2023-01-20T08:03:13.318Z,95.60
2023-01-20T08:05:44.574Z,95.43
2023-01-20T08:08:15.658Z,95.40
2023-01-20T08:10:44.561Z,96.05
2023-01-20T08:13:13.301Z,96.68
2023-01-20T08:15:41.963Z,96.31
2023-01-20T08:18:13.745Z,95.49
2023-01-20T08:20:43.068Z,95.88
2023-01-20T08:23:12.021Z,95.59
2023-01-20T08:25:40.955Z,94.75
2023-01-20T08:28:10.563Z,94.19
2023-01-20T08:30:45.050Z,94.40
2023-01-20T08:33:13.722Z,94.00
2023-01-20T08:35:44.733Z,94.25
2023-01-20T08:38:15.545Z,94.35
2023-01-20T08:40:50.091Z,93.23
2023-01-20T08:43:18.997Z,92.76
2023-01-20T08:45:58.073Z,92.44
2023-01-20T08:48:32.939Z,92.16
2023-01-20T08:51:08.008Z,91.90
2023-01-20T08:53:37.532Z,91.52
2023-01-20T08:56:10.687Z,91.78
2023-01-20T08:58:42.882Z,91.79
2023-01-20T09:01:17.328Z,91.70
2023-01-20T09:03:59.293Z,91.89
2023-01-20T09:06:45.137Z,91.66
2023-01-20T09:09:18.227Z,91.87
2023-01-20T09:11:51.400Z,91.94
2023-01-20T09:14:22.027Z,92.04
2023-01-20T09:16:51.308Z,92.03
2023-01-20T09:19:19.983Z,92.34
2023-01-20T09:21:51.593Z,92.25
2023-01-20T09:24:20.231Z,91.99
2023-01-20T09:26:49.888Z,91.39
2023-01-20T09:29:21.103Z,91.55
2023-01-20T09:31:52.689Z,91.66
2023-01-20T09:34:24.856Z,91.86
2023-01-20T09:36:55.230Z,91.48
2023-01-20T09:39:44.731Z,91.29
2023-01-20T09:42:56.044Z,91.24
2023-01-20T09:45:34.268Z,91.29
2023-01-20T09:48:38.498Z,91.66
2023-01-20T09:51:35.662Z,91.34
2023-01-20T09:54:13.176Z,91.49
2023-01-20T09:56:47.086Z,91.30
2023-01-20T09:59:27.126Z,91.91
2023-01-20T10:02:01.063Z,91.13
2023-01-20T10:04:42.201Z,90.90
2023-01-20T10:07:35.746Z,91.40
2023-01-20T10:10:21.266Z,91.74
2023-01-20T10:13:05.526Z,91.61
2023-01-20T10:15:37.880Z,91.32
2023-01-20T10:18:15.522Z,90.78
2023-01-20T10:20:46.218Z,91.01
2023-01-20T10:23:33.644Z,90.99
2023-01-20T10:26:21.248Z,90.62
2023-01-20T10:29:02.997Z,90.50
2023-01-20T10:31:36.153Z,90.70
2023-01-20T10:34:12.950Z,90.39
2023-01-20T10:36:47.121Z,90.70
2023-01-20T10:39:38.676Z,90.53
2023-01-20T10:42:19.599Z,90.52
2023-01-20T10:44:50.666Z,90.50
2023-01-20T10:47:42.665Z,90.00
2023-01-20T10:50:28.490Z,90.01
2023-01-20T10:53:13.741Z,90.07
2023-01-20T10:56:15.660Z,89.84
2023-01-20T10:58:45.540Z,89.75
2023-01-20T11:01:19.109Z,89.87
2023-01-20T11:03:49.449Z,90.26
2023-01-20T11:06:28.327Z,90.68
2023-01-20T11:08:57.620Z,90.68
2023-01-20T11:11:26.921Z,90.31
2023-01-20T11:13:55.652Z,89.68
2023-01-20T11:16:28.939Z,89.19
2023-01-20T11:19:03.523Z,89.38
2023-01-20T11:21:36.110Z,89.61
2023-01-20T11:24:33.977Z,89.17
2023-01-20T11:27:04.756Z,88.99
2023-01-20T11:29:41.479Z,88.27
2023-01-20T11:32:45.654Z,87.85
2023-01-20T11:35:23.086Z,88.39
2023-01-20T11:37:52.756Z,89.10
2023-01-20T11:40:29.440Z,89.18
2023-01-20T11:42:57.859Z,89.13
2023-01-20T11:45:35.169Z,89.63
2023-01-20T11:48:16.924Z,89.25
2023-01-20T11:50:58.507Z,88.56
2023-01-20T11:53:32.197Z,88.70
2023-01-20T11:56:15.560Z,88.50
2023-01-20T11:58:50.805Z,88.75
2023-01-20T12:01:29.898Z,88.79
2023-01-20T12:04:20.211Z,88.98
2023-01-20T12:07:38.203Z,89.04
2023-01-20T12:10:17.847Z,88.97
2023-01-20T12:12:57.979Z,88.93
2023-01-20T12:15:38.077Z,88.69
2023-01-20T12:18:15.677Z,88.98
2023-01-20T12:20:56.250Z,89.15
2023-01-20T12:23:46.083Z,89.01
2023-01-20T12:26:17.254Z,89.03
2023-01-20T12:29:11.060Z,88.72
2023-01-20T12:31:39.722Z,88.93
2023-01-20T12:34:15.731Z,88.83
2023-01-20T12:36:46.973Z,88.70
2023-01-20T12:39:34.357Z,88.22
2023-01-20T12:42:34.037Z,88.07
2023-01-20T12:45:35.110Z,88.10
2023-01-20T12:48:21.140Z,88.13
2023-01-20T12:50:53.680Z,87.98
2023-01-20T12:53:40.899Z,87.84
2023-01-20T12:56:27.830Z,87.71
2023-01-20T12:59:32.606Z,87.75
2023-01-20T13:02:23.533Z,88.02
2023-01-20T13:05:01.054Z,88.16
2023-01-20T13:07:39.630Z,87.64
2023-01-20T13:10:33.965Z,87.22
2023-01-20T13:13:24.167Z,86.74
2023-01-20T13:16:00.745Z,86.62
2023-01-20T13:18:43.249Z,86.83
2023-01-20T13:21:18.937Z,86.86
2023-01-20T13:23:51.848Z,87.03
2023-01-20T13:26:20.418Z,86.93
2023-01-20T13:28:54.451Z,86.97
2023-01-20T13:31:36.946Z,86.83
2023-01-20T13:34:24.701Z,87.65
2023-01-20T13:37:02.552Z,88.23
2023-01-20T13:39:45.390Z,87.88
2023-01-20T13:42:38.233Z,87.80
2023-01-20T13:45:13.070Z,87.66
2023-01-20T13:47:53.617Z,87.67
2023-01-20T13:50:34.911Z,87.84
2023-01-20T13:53:30.975Z,88.03
2023-01-20T13:56:40.861Z,88.52
2023-01-20T13:59:11.247Z,88.43
2023-01-20T14:01:40.450Z,88.14
2023-01-20T14:04:19.964Z,87.97
2023-01-20T14:06:51.446Z,87.83
2023-01-20T14:09:26.313Z,87.76
2023-01-20T14:11:57.781Z,88.01
2023-01-20T14:14:27.647Z,88.65
2023-01-20T14:16:56.824Z,89.16
2023-01-20T14:19:34.961Z,89.51
2023-01-20T14:22:17.953Z,89.45
2023-01-20T14:24:48.386Z,89.88
2023-01-20T14:27:29.804Z,89.77
2023-01-20T14:30:14.707Z,89.87
2023-01-20T14:32:44.226Z,89.63
2023-01-20T14:35:17.500Z,90.00
2023-01-20T14:37:50.854Z,90.08
2023-01-20T14:40:27.198Z,90.27
2023-01-20T14:43:01.002Z,90.28
2023-01-20T14:45:32.562Z,90.13
2023-01-20T14:48:02.951Z,90.05
2023-01-20T14:50:32.359Z,90.12
2023-01-20T14:53:01.928Z,90.14
2023-01-20T14:55:33.323Z,90.24
2023-01-20T14:58:09.413Z,90.19
2023-01-20T15:00:46.306Z,90.12
2023-01-20T15:03:25.167Z,90.18
2023-01-20T15:06:09.170Z,90.19
2023-01-20T15:08:37.569Z,90.60
2023-01-20T15:11:17.234Z,90.67
2023-01-20T15:13:53.282Z,90.83
2023-01-20T15:16:29.419Z,90.86
2023-01-20T15:19:20.431Z,91.02
2023-01-20T15:21:54.911Z,91.78
2023-01-20T15:24:30.485Z,91.31
2023-01-20T15:27:01.987Z,91.97
2023-01-20T15:29:35.780Z,93.02
2023-01-20T15:32:12.255Z,93.01
2023-01-20T15:34:40.691Z,94.63
2023-01-20T15:37:20.958Z,95.00
2023-01-20T15:39:49.378Z,95.18
2023-01-20T15:42:19.192Z,95.18
2023-01-20T15:44:47.713Z,95.71
2023-01-20T15:47:31.380Z,95.90
2023-01-20T15:49:59.829Z,96.05
2023-01-20T15:52:28.280Z,96.24
2023-01-20T15:54:57.283Z,96.47
2023-01-20T15:57:25.814Z,95.55
2023-01-20T15:59:54.304Z,95.37
2023-01-20T16:02:24.311Z,95.87
2023-01-20T16:04:52.851Z,96.00
2023-01-20T16:07:22.026Z,95.97
2023-01-20T16:09:50.516Z,95.50
2023-01-20T16:12:19.541Z,95.75
2023-01-20T16:14:48.156Z,95.80
2023-01-20T16:17:22.358Z,95.91
2023-01-20T16:19:50.913Z,95.65
2023-01-20T16:22:19.408Z,95.31
2023-01-20T16:24:49.345Z,95.06
2023-01-20T16:27:22.763Z,94.88
2023-01-20T16:29:51.349Z,94.85
2023-01-20T16:32:22.427Z,94.78
2023-01-20T16:34:51.381Z,94.68
2023-01-20T16:37:20.303Z,94.78
2023-01-20T16:39:48.970Z,94.81
2023-01-20T16:42:17.731Z,94.75
2023-01-20T16:44:46.454Z,94.86
2023-01-20T16:47:15.188Z,94.82
2023-01-20T16:49:43.670Z,94.87
2023-01-20T16:52:12.285Z,94.76
2023-01-20T16:54:40.825Z,94.86
2023-01-20T16:57:10.704Z,94.83
2023-01-20T16:59:39.190Z,94.85
2023-01-20T17:02:11.221Z,94.78
2023-01-20T17:04:40.371Z,94.74
2023-01-20T17:07:08.827Z,94.85
2023-01-20T17:09:37.319Z,95.14
2023-01-20T17:12:06.074Z,95.01
2023-01-20T17:14:34.703Z,95.93
2023-01-20T17:17:03.828Z,97.00
2023-01-20T17:19:32.803Z,96.49
2023-01-20T17:22:01.440Z,97.11
2023-01-20T17:24:29.984Z,97.15
2023-01-20T17:26:58.592Z,96.92
2023-01-20T17:29:27.424Z,97.01
2023-01-20T17:31:56.943Z,97.17
2023-01-20T17:34:25.675Z,97.23
2023-01-20T17:36:54.565Z,97.85
2023-01-20T17:39:23.303Z,98.11
2023-01-20T17:41:51.843Z,97.92
2023-01-20T17:44:20.905Z,98.48
2023-01-20T17:46:50.568Z,99.13
2023-01-20T17:49:19.077Z,99.39
2023-01-20T17:51:47.607Z,99.18
2023-01-20T17:54:16.247Z,99.26
2023-01-20T17:56:47.976Z,99.47
2023-01-20T17:59:16.597Z,99.92
2023-01-20T18:01:45.041Z,100.00
2023-01-20T18:04:13.448Z,100.00
2023-01-20T18:06:42.351Z,100.00
2023-01-20T18:09:13.351Z,100.00
2023-01-20T18:11:43.845Z,99.79
2023-01-20T18:14:12.846Z,99.79
2023-01-20T18:16:41.861Z,99.60
2023-01-20T18:19:12.971Z,99.53
2023-01-20T18:21:44.044Z,99.78
2023-01-20T18:24:12.818Z,99.77
2023-01-20T18:26:45.473Z,99.69
2023-01-20T18:29:16.747Z,100.00
2023-01-20T18:31:46.759Z,100.00
2023-01-20T18:34:15.999Z,100.00
2023-01-20T18:36:46.306Z,100.00
2023-01-20T18:39:17.702Z,100.00
2023-01-20T18:41:47.993Z,100.00
2023-01-20T18:44:16.843Z,100.00
2023-01-20T18:46:45.708Z,100.00
2023-01-20T18:49:18.113Z,100.00
2023-01-20T18:51:46.793Z,100.00
2023-01-20T18:54:18.345Z,100.00
2023-01-20T18:56:47.569Z,100.00
2023-01-20T18:59:16.541Z,100.00
2023-01-20T19:01:45.422Z,100.00
2023-01-20T19:04:14.129Z,99.98
2023-01-20T19:06:45.584Z,100.00
2023-01-20T19:09:16.188Z,99.58
2023-01-20T19:11:44.840Z,98.44
2023-01-20T19:14:15.330Z,98.49
2023-01-20T19:16:49.458Z,98.22
2023-01-20T19:19:19.523Z,97.94
2023-01-20T19:21:51.968Z,97.88
2023-01-20T19:24:22.016Z,98.02
2023-01-20T19:26:50.711Z,97.82
2023-01-20T19:29:19.970Z,97.73
2023-01-20T19:31:49.708Z,97.81
2023-01-20T19:34:18.325Z,98.26
2023-01-20T19:36:46.953Z,98.68
2023-01-20T19:39:16.232Z,98.65
2023-01-20T19:41:46.164Z,98.46
2023-01-20T19:44:15.049Z,98.60
2023-01-20T19:46:43.649Z,98.61
2023-01-20T19:49:12.688Z,97.87
2023-01-20T19:51:41.262Z,97.63
2023-01-20T19:54:12.593Z,97.61
2023-01-20T19:56:41.623Z,97.73
2023-01-20T19:59:12.231Z,97.68
2023-01-20T20:01:40.972Z,97.61
2023-01-20T20:04:12.981Z,96.79
2023-01-20T20:06:46.236Z,96.38
2023-01-20T20:09:23.558Z,96.70
2023-01-20T20:11:52.874Z,95.92
2023-01-20T20:14:23.239Z,95.77
2023-01-20T20:16:52.559Z,95.52
2023-01-20T20:19:23.859Z,94.73
2023-01-20T20:21:53.952Z,95.08
2023-01-20T20:24:25.514Z,95.71
2023-01-20T20:26:57.733Z,95.42
2023-01-20T20:29:29.340Z,95.35
2023-01-20T20:32:00.229Z,94.76
2023-01-20T20:34:33.987Z,94.83
2023-01-20T20:37:03.579Z,95.34
2023-01-20T20:39:37.848Z,95.23
2023-01-20T20:42:06.435Z,94.74
2023-01-20T20:44:35.261Z,94.73
2023-01-20T20:47:05.352Z,94.66
2023-01-20T20:49:38.815Z,94.45
2023-01-20T20:52:07.478Z,94.62
2023-01-20T20:54:44.341Z,94.39
2023-01-20T20:57:16.823Z,93.77
2023-01-20T20:59:58.573Z,94.07
2023-01-20T21:02:33.911Z,94.48
2023-01-20T21:05:03.396Z,94.38
2023-01-20T21:07:36.653Z,94.53
2023-01-20T21:10:05.818Z,94.87
2023-01-20T21:12:42.300Z,94.68
2023-01-20T21:15:14.829Z,93.99
2023-01-20T21:17:51.381Z,94.20
2023-01-20T21:20:20.003Z,94.32
2023-01-20T21:22:52.865Z,94.49
2023-01-20T21:25:27.155Z,94.53
2023-01-20T21:28:02.121Z,94.07
2023-01-20T21:30:33.410Z,93.97
2023-01-20T21:33:02.001Z,93.67
2023-01-20T21:35:36.909Z,93.91
2023-01-20T21:38:10.113Z,93.64
2023-01-20T21:40:59.973Z,94.10
2023-01-20T21:43:56.318Z,94.58
2023-01-20T21:46:31.076Z,94.30
2023-01-20T21:49:20.666Z,94.62
2023-01-20T21:52:08.695Z,94.80
2023-01-20T21:54:40.255Z,93.69
2023-01-20T21:57:09.967Z,92.54
2023-01-20T21:59:43.414Z,91.92
2023-01-20T22:02:17.346Z,92.74
2023-01-20T22:04:48.897Z,93.29
2023-01-20T22:07:23.692Z,93.06
2023-01-20T22:09:57.903Z,92.19
2023-01-20T22:12:33.835Z,92.11
2023-01-20T22:15:04.173Z,92.51
2023-01-20T22:17:35.973Z,92.93
2023-01-20T22:20:06.470Z,92.81
2023-01-20T22:22:55.939Z,92.07
2023-01-20T22:25:29.684Z,92.63
2023-01-20T22:27:58.317Z,92.80
2023-01-20T22:30:29.857Z,92.89
2023-01-20T22:33:03.730Z,93.55
2023-01-20T22:35:38.637Z,94.80
2023-01-20T22:38:07.486Z,94.42
2023-01-20T22:40:37.179Z,94.17
2023-01-20T22:43:11.012Z,94.26
2023-01-20T22:45:42.047Z,94.32
2023-01-20T22:48:11.564Z,94.17
2023-01-20T22:50:43.072Z,93.73
2023-01-20T22:53:11.695Z,93.73
2023-01-20T22:55:52.274Z,93.99
2023-01-20T22:58:34.111Z,93.75
2023-01-20T23:01:06.102Z,93.82
2023-01-20T23:03:38.325Z,93.78
2023-01-20T23:06:08.140Z,93.65
2023-01-20T23:08:42.856Z,93.73
2023-01-20T23:11:14.352Z,94.25
2023-01-20T23:13:46.816Z,94.88
2023-01-20T23:16:22.586Z,94.87
2023-01-20T23:18:59.935Z,94.84
2023-01-20T23:21:31.788Z,95.06
2023-01-20T23:24:02.619Z,96.13
2023-01-20T23:26:31.281Z,97.20
2023-01-20T23:29:02.939Z,96.67
2023-01-20T23:31:33.730Z,95.91
2023-01-20T23:34:02.465Z,96.11
2023-01-20T23:36:31.092Z,95.18
2023-01-20T23:39:02.667Z,95.14
2023-01-20T23:41:33.720Z,95.46
2023-01-20T23:44:09.824Z,95.50
2023-01-20T23:46:45.707Z,94.96
2023-01-20T23:49:14.207Z,95.09
2023-01-20T23:51:45.597Z,95.18
2023-01-20T23:54:21.868Z,95.38
2023-01-20T23:57:04.345Z,95.39
2023-01-20T23:59:32.903Z,95.60
